sensor_id;sensor_type;location;lat;lon;timestamp;pressure;altitude;pressure_sealevel;temperature;humidity
65666;BME280;52365;47.464;18.976;2023-03-22T00:00:35;99723.47;;;12.48;53.92
65666;BME280;52365;47.464;18.976;2023-03-22T00:01:15;99730.09;;;12.47;54.10
65666;BME280;52365;47.464;18.976;2023-03-22T00:01:52;99721.59;;;12.39;54.13
65666;BME280;52365;47.464;18.976;2023-03-22T00:02:28;99723.47;;;12.18;54.95
65666;BME280;52365;47.464;18.976;2023-03-22T00:03:05;99718.41;;;12.11;55.12
65666;BME280;52365;47.464;18.976;2023-03-22T00:03:42;99723.09;;;12.25;55.00
65666;BME280;52365;47.464;18.976;2023-03-22T00:04:18;99725.31;;;12.27;54.91
65666;BME280;52365;47.464;18.976;2023-03-22T00:04:55;99720.66;;;12.42;54.41
65666;BME280;52365;47.464;18.976;2023-03-22T00:05:31;99727.28;;;12.56;53.66
65666;BME280;52365;47.464;18.976;2023-03-22T00:06:08;99725.31;;;12.71;53.22
65666;BME280;52365;47.464;18.976;2023-03-22T00:06:45;99729.31;;;12.91;52.76
65666;BME280;52365;47.464;18.976;2023-03-22T00:07:21;99726.87;;;13.28;51.63
65666;BME280;52365;47.464;18.976;2023-03-22T00:07:58;99728.78;;;13.42;50.80
65666;BME280;52365;47.464;18.976;2023-03-22T00:08:34;99736.00;;;13.51;50.11
65666;BME280;52365;47.464;18.976;2023-03-22T00:09:11;99729.25;;;13.41;49.62
65666;BME280;52365;47.464;18.976;2023-03-22T00:09:48;99732.09;;;13.31;49.50
65666;BME280;52365;47.464;18.976;2023-03-22T00:10:25;99722.03;;;13.17;49.25
65666;BME280;52365;47.464;18.976;2023-03-22T00:11:04;99734.66;;;13.05;49.70
65666;BME280;52365;47.464;18.976;2023-03-22T00:11:41;99728.78;;;13.07;49.42
65666;BME280;52365;47.464;18.976;2023-03-22T00:12:17;99726.91;;;12.78;50.00
65666;BME280;52365;47.464;18.976;2023-03-22T00:12:54;99730.00;;;12.56;51.03
65666;BME280;52365;47.464;18.976;2023-03-22T00:13:32;99729.25;;;13.05;49.99
65666;BME280;52365;47.464;18.976;2023-03-22T00:14:08;99730.38;;;13.34;48.98
65666;BME280;52365;47.464;18.976;2023-03-22T00:14:45;99724.19;;;13.48;48.24
65666;BME280;52365;47.464;18.976;2023-03-22T00:15:21;99726.81;;;13.07;48.71
65666;BME280;52365;47.464;18.976;2023-03-22T00:15:58;99726.03;;;12.87;49.65
65666;BME280;52365;47.464;18.976;2023-03-22T00:16:37;99725.78;;;12.70;49.81
65666;BME280;52365;47.464;18.976;2023-03-22T00:17:14;99725.88;;;12.46;50.63
65666;BME280;52365;47.464;18.976;2023-03-22T00:17:51;99718.16;;;12.53;50.50
65666;BME280;52365;47.464;18.976;2023-03-22T00:18:28;99720.75;;;12.18;51.69
65666;BME280;52365;47.464;18.976;2023-03-22T00:19:05;99727.56;;;12.14;52.02
65666;BME280;52365;47.464;18.976;2023-03-22T00:19:41;99725.03;;;12.54;51.08
65666;BME280;52365;47.464;18.976;2023-03-22T00:20:20;99727.16;;;12.80;50.15
65666;BME280;52365;47.464;18.976;2023-03-22T00:20:58;99721.03;;;12.50;50.83
65666;BME280;52365;47.464;18.976;2023-03-22T00:21:35;99717.66;;;12.10;51.86
65666;BME280;52365;47.464;18.976;2023-03-22T00:22:11;99723.06;;;11.96;52.48
65666;BME280;52365;47.464;18.976;2023-03-22T00:22:50;99715.78;;;11.87;52.87
65666;BME280;52365;47.464;18.976;2023-03-22T00:23:27;99721.97;;;11.78;53.00
65666;BME280;52365;47.464;18.976;2023-03-22T00:24:04;99721.88;;;11.73;53.47
65666;BME280;52365;47.464;18.976;2023-03-22T00:24:40;99720.44;;;11.63;53.40
65666;BME280;52365;47.464;18.976;2023-03-22T00:25:17;99718.78;;;11.17;54.98
65666;BME280;52365;47.464;18.976;2023-03-22T00:25:53;99722.31;;;11.23;55.18
65666;BME280;52365;47.464;18.976;2023-03-22T00:26:30;99720.47;;;11.39;54.62
65666;BME280;52365;47.464;18.976;2023-03-22T00:27:06;99717.28;;;11.40;54.46
65666;BME280;52365;47.464;18.976;2023-03-22T00:27:43;99719.56;;;11.32;54.97
65666;BME280;52365;47.464;18.976;2023-03-22T00:28:19;99715.91;;;11.45;54.64
65666;BME280;52365;47.464;18.976;2023-03-22T00:28:56;99714.97;;;11.72;53.76
65666;BME280;52365;47.464;18.976;2023-03-22T00:29:33;99714.41;;;11.68;53.58
65666;BME280;52365;47.464;18.976;2023-03-22T00:30:10;99717.53;;;11.51;53.88
65666;BME280;52365;47.464;18.976;2023-03-22T00:30:51;99722.97;;;11.66;53.71
65666;BME280;52365;47.464;18.976;2023-03-22T00:31:28;99711.56;;;11.47;54.00
65666;BME280;52365;47.464;18.976;2023-03-22T00:32:04;99723.47;;;11.07;55.21
65666;BME280;52365;47.464;18.976;2023-03-22T00:32:40;99716.75;;;11.03;56.07
65666;BME280;52365;47.464;18.976;2023-03-22T00:33:20;99712.97;;;11.09;55.64
65666;BME280;52365;47.464;18.976;2023-03-22T00:33:57;99712.22;;;11.09;55.65
65666;BME280;52365;47.464;18.976;2023-03-22T00:34:33;99714.44;;;10.87;56.38
65666;BME280;52365;47.464;18.976;2023-03-22T00:35:10;99718.19;;;10.89;56.43
65666;BME280;52365;47.464;18.976;2023-03-22T00:35:59;99719.16;;;11.01;55.84
65666;BME280;52365;47.464;18.976;2023-03-22T00:36:36;99718.87;;;10.99;56.10
65666;BME280;52365;47.464;18.976;2023-03-22T00:37:12;99715.72;;;11.00;55.95
65666;BME280;52365;47.464;18.976;2023-03-22T00:37:51;99719.91;;;11.01;55.93
65666;BME280;52365;47.464;18.976;2023-03-22T00:38:27;99718.63;;;10.88;56.32
65666;BME280;52365;47.464;18.976;2023-03-22T00:39:14;99713.84;;;10.82;56.58
65666;BME280;52365;47.464;18.976;2023-03-22T00:39:50;99717.75;;;10.81;56.62
65666;BME280;52365;47.464;18.976;2023-03-22T00:40:26;99711.78;;;10.77;56.89
65666;BME280;52365;47.464;18.976;2023-03-22T00:41:05;99717.00;;;10.81;56.64
65666;BME280;52365;47.464;18.976;2023-03-22T00:41:41;99707.78;;;10.64;57.32
65666;BME280;52365;47.464;18.976;2023-03-22T00:42:18;99716.34;;;10.53;57.75
65666;BME280;52365;47.464;18.976;2023-03-22T00:42:54;99712.50;;;10.45;58.09
65666;BME280;52365;47.464;18.976;2023-03-22T00:43:31;99713.19;;;10.64;57.66
65666;BME280;52365;47.464;18.976;2023-03-22T00:44:07;99716.91;;;10.57;57.66
65666;BME280;52365;47.464;18.976;2023-03-22T00:44:44;99708.53;;;10.64;57.38
65666;BME280;52365;47.464;18.976;2023-03-22T00:45:20;99712.09;;;10.70;57.40
65666;BME280;52365;47.464;18.976;2023-03-22T00:45:56;99710.91;;;10.62;57.38
65666;BME280;52365;47.464;18.976;2023-03-22T00:46:32;99716.78;;;10.61;57.51
65666;BME280;52365;47.464;18.976;2023-03-22T00:47:08;99709.03;;;10.44;58.26
65666;BME280;52365;47.464;18.976;2023-03-22T00:47:45;99707.50;;;10.52;58.14
65666;BME280;52365;47.464;18.976;2023-03-22T00:48:21;99707.66;;;10.49;58.22
65666;BME280;52365;47.464;18.976;2023-03-22T00:48:58;99712.63;;;10.50;58.47
65666;BME280;52365;47.464;18.976;2023-03-22T00:49:34;99719.78;;;10.63;58.18
65666;BME280;52365;47.464;18.976;2023-03-22T00:50:12;99711.63;;;10.81;57.86
65666;BME280;52365;47.464;18.976;2023-03-22T00:50:48;99715.66;;;11.09;56.65
65666;BME280;52365;47.464;18.976;2023-03-22T00:51:24;99715.22;;;11.11;56.41
65666;BME280;52365;47.464;18.976;2023-03-22T00:52:00;99706.78;;;11.18;56.38
65666;BME280;52365;47.464;18.976;2023-03-22T00:52:37;99716.53;;;11.40;56.13
65666;BME280;52365;47.464;18.976;2023-03-22T00:53:13;99725.53;;;11.46;55.37
65666;BME280;52365;47.464;18.976;2023-03-22T00:53:49;99713.72;;;11.58;55.44
65666;BME280;52365;47.464;18.976;2023-03-22T00:54:25;99721.13;;;11.48;55.85
65666;BME280;52365;47.464;18.976;2023-03-22T00:55:02;99720.09;;;11.22;57.19
65666;BME280;52365;47.464;18.976;2023-03-22T00:55:38;99710.56;;;11.35;57.39
65666;BME280;52365;47.464;18.976;2023-03-22T00:56:14;99718.53;;;11.54;56.57
65666;BME280;52365;47.464;18.976;2023-03-22T00:56:51;99723.84;;;11.48;56.95
65666;BME280;52365;47.464;18.976;2023-03-22T00:57:27;99719.13;;;11.58;56.55
65666;BME280;52365;47.464;18.976;2023-03-22T00:58:04;99716.22;;;11.47;57.07
65666;BME280;52365;47.464;18.976;2023-03-22T00:58:41;99713.13;;;11.78;56.71
65666;BME280;52365;47.464;18.976;2023-03-22T00:59:17;99717.66;;;11.96;55.67
65666;BME280;52365;47.464;18.976;2023-03-22T01:00:10;99717.50;;;12.14;55.32
65666;BME280;52365;47.464;18.976;2023-03-22T01:00:48;99712.44;;;12.07;55.19
65666;BME280;52365;47.464;18.976;2023-03-22T01:01:25;99714.41;;;12.06;55.37
65666;BME280;52365;47.464;18.976;2023-03-22T01:02:01;99708.91;;;11.86;55.79
65666;BME280;52365;47.464;18.976;2023-03-22T01:02:39;99714.41;;;11.92;56.29
65666;BME280;52365;47.464;18.976;2023-03-22T01:03:16;99717.41;;;12.23;55.42
65666;BME280;52365;47.464;18.976;2023-03-22T01:03:52;99713.59;;;12.45;54.68
65666;BME280;52365;47.464;18.976;2023-03-22T01:04:28;99714.78;;;11.99;55.57
65666;BME280;52365;47.464;18.976;2023-03-22T01:05:06;99712.75;;;12.09;55.56
65666;BME280;52365;47.464;18.976;2023-03-22T01:05:45;99716.09;;;12.04;55.67
65666;BME280;52365;47.464;18.976;2023-03-22T01:06:21;99721.59;;;12.24;55.20
65666;BME280;52365;47.464;18.976;2023-03-22T01:06:57;99718.78;;;12.19;55.28
65666;BME280;52365;47.464;18.976;2023-03-22T01:07:38;99711.69;;;12.06;55.17
65666;BME280;52365;47.464;18.976;2023-03-22T01:08:16;99716.88;;;12.34;54.91
65666;BME280;52365;47.464;18.976;2023-03-22T01:08:52;99709.06;;;11.82;55.99
65666;BME280;52365;47.464;18.976;2023-03-22T01:09:30;99719.25;;;11.64;56.93
65666;BME280;52365;47.464;18.976;2023-03-22T01:10:09;99713.69;;;11.82;56.29
65666;BME280;52365;47.464;18.976;2023-03-22T01:10:47;99710.69;;;12.33;55.14
65666;BME280;52365;47.464;18.976;2023-03-22T01:11:23;99717.31;;;12.47;54.51
65666;BME280;52365;47.464;18.976;2023-03-22T01:12:02;99707.25;;;12.48;54.18
65666;BME280;52365;47.464;18.976;2023-03-22T01:12:38;99710.97;;;12.65;53.82
65666;BME280;52365;47.464;18.976;2023-03-22T01:13:15;99711.91;;;12.32;54.09
65666;BME280;52365;47.464;18.976;2023-03-22T01:13:51;99713.38;;;12.04;55.31
65666;BME280;52365;47.464;18.976;2023-03-22T01:14:27;99715.34;;;12.03;55.50
65666;BME280;52365;47.464;18.976;2023-03-22T01:15:04;99709.13;;;12.27;55.13
65666;BME280;52365;47.464;18.976;2023-03-22T01:15:41;99714.34;;;12.30;54.75
65666;BME280;52365;47.464;18.976;2023-03-22T01:16:17;99706.13;;;12.40;54.62
65666;BME280;52365;47.464;18.976;2023-03-22T01:16:53;99704.44;;;12.27;54.65
65666;BME280;52365;47.464;18.976;2023-03-22T01:17:32;99703.91;;;12.23;54.75
65666;BME280;52365;47.464;18.976;2023-03-22T01:18:08;99708.72;;;11.90;55.85
65666;BME280;52365;47.464;18.976;2023-03-22T01:18:44;99709.06;;;11.82;56.61
65666;BME280;52365;47.464;18.976;2023-03-22T01:19:20;99707.25;;;12.03;56.14
65666;BME280;52365;47.464;18.976;2023-03-22T01:19:56;99696.59;;;11.85;56.27
65666;BME280;52365;47.464;18.976;2023-03-22T01:20:33;99704.53;;;11.65;56.95
65666;BME280;52365;47.464;18.976;2023-03-22T01:21:09;99701.50;;;11.48;57.50
65666;BME280;52365;47.464;18.976;2023-03-22T01:21:46;99703.50;;;11.62;57.21
65666;BME280;52365;47.464;18.976;2023-03-22T01:22:22;99700.06;;;11.62;57.35
65666;BME280;52365;47.464;18.976;2023-03-22T01:22:58;99702.16;;;11.43;57.52
65666;BME280;52365;47.464;18.976;2023-03-22T01:23:35;99701.94;;;11.70;57.34
65666;BME280;52365;47.464;18.976;2023-03-22T01:24:11;99700.34;;;12.02;56.18
65666;BME280;52365;47.464;18.976;2023-03-22T01:24:48;99704.25;;;11.87;55.79
65666;BME280;52365;47.464;18.976;2023-03-22T01:25:25;99700.75;;;11.47;57.20
65666;BME280;52365;47.464;18.976;2023-03-22T01:26:01;99696.91;;;11.39;57.62
65666;BME280;52365;47.464;18.976;2023-03-22T01:26:37;99698.94;;;11.29;58.13
65666;BME280;52365;47.464;18.976;2023-03-22T01:27:13;99700.47;;;11.21;58.30
65666;BME280;52365;47.464;18.976;2023-03-22T01:27:51;99702.75;;;11.14;58.68
65666;BME280;52365;47.464;18.976;2023-03-22T01:28:28;99697.72;;;11.06;58.83
65666;BME280;52365;47.464;18.976;2023-03-22T01:29:04;99702.44;;;11.21;58.85
65666;BME280;52365;47.464;18.976;2023-03-22T01:29:40;99704.50;;;11.02;59.30
65666;BME280;52365;47.464;18.976;2023-03-22T01:30:17;99698.56;;;11.13;58.78
65666;BME280;52365;47.464;18.976;2023-03-22T01:30:53;99701.44;;;11.09;59.23
65666;BME280;52365;47.464;18.976;2023-03-22T01:31:30;99702.06;;;11.52;58.21
65666;BME280;52365;47.464;18.976;2023-03-22T01:32:06;99699.03;;;11.35;58.03
65666;BME280;52365;47.464;18.976;2023-03-22T01:32:42;99701.75;;;11.11;58.92
65666;BME280;52365;47.464;18.976;2023-03-22T01:33:18;99700.22;;;11.10;59.05
65666;BME280;52365;47.464;18.976;2023-03-22T01:33:55;99704.25;;;11.15;59.03
65666;BME280;52365;47.464;18.976;2023-03-22T01:34:31;99694.38;;;11.35;58.56
65666;BME280;52365;47.464;18.976;2023-03-22T01:35:08;99697.69;;;11.78;57.44
65666;BME280;52365;47.464;18.976;2023-03-22T01:35:44;99695.87;;;11.75;56.84
65666;BME280;52365;47.464;18.976;2023-03-22T01:36:21;99685.31;;;11.48;57.50
65666;BME280;52365;47.464;18.976;2023-03-22T01:36:57;99693.63;;;11.35;58.18
65666;BME280;52365;47.464;18.976;2023-03-22T01:37:33;99687.47;;;11.20;58.76
65666;BME280;52365;47.464;18.976;2023-03-22T01:38:09;99696.28;;;11.20;58.90
65666;BME280;52365;47.464;18.976;2023-03-22T01:38:45;99698.75;;;11.09;59.34
65666;BME280;52365;47.464;18.976;2023-03-22T01:39:21;99696.91;;;11.15;59.15
65666;BME280;52365;47.464;18.976;2023-03-22T01:39:58;99698.06;;;11.23;59.12
65666;BME280;52365;47.464;18.976;2023-03-22T01:40:34;99691.28;;;11.52;58.18
65666;BME280;52365;47.464;18.976;2023-03-22T01:41:11;99697.41;;;11.52;58.04
65666;BME280;52365;47.464;18.976;2023-03-22T01:41:47;99691.06;;;11.41;58.53
65666;BME280;52365;47.464;18.976;2023-03-22T01:42:24;99700.16;;;11.28;58.87
65666;BME280;52365;47.464;18.976;2023-03-22T01:43:01;99694.63;;;11.23;58.88
65666;BME280;52365;47.464;18.976;2023-03-22T01:43:37;99699.62;;;11.15;59.25
65666;BME280;52365;47.464;18.976;2023-03-22T01:44:15;99696.72;;;11.19;59.65
65666;BME280;52365;47.464;18.976;2023-03-22T01:45:52;99698.59;;;11.75;57.37
65666;BME280;52365;47.464;18.976;2023-03-22T01:46:29;99702.41;;;11.45;58.28
65666;BME280;52365;47.464;18.976;2023-03-22T01:47:07;99698.28;;;11.34;58.63
65666;BME280;52365;47.464;18.976;2023-03-22T01:47:51;99700.53;;;11.36;58.81
65666;BME280;52365;47.464;18.976;2023-03-22T01:48:32;99707.03;;;11.29;59.09
65666;BME280;52365;47.464;18.976;2023-03-22T01:49:14;99699.81;;;11.74;58.13
65666;BME280;52365;47.464;18.976;2023-03-22T01:49:52;99699.44;;;11.43;58.29
65666;BME280;52365;47.464;18.976;2023-03-22T01:50:28;99699.66;;;11.30;58.88
65666;BME280;52365;47.464;18.976;2023-03-22T01:51:48;99702.59;;;11.17;59.53
65666;BME280;52365;47.464;18.976;2023-03-22T01:52:26;99701.09;;;11.16;59.58
65666;BME280;52365;47.464;18.976;2023-03-22T01:53:02;99700.16;;;11.19;59.43
65666;BME280;52365;47.464;18.976;2023-03-22T01:53:51;99702.47;;;11.12;59.81
65666;BME280;52365;47.464;18.976;2023-03-22T01:54:39;99704.50;;;11.02;60.18
65666;BME280;52365;47.464;18.976;2023-03-22T01:55:18;99701.22;;;10.98;60.59
65666;BME280;52365;47.464;18.976;2023-03-22T01:55:57;99703.13;;;11.30;59.50
65666;BME280;52365;47.464;18.976;2023-03-22T01:56:36;99694.22;;;11.15;59.78
65666;BME280;52365;47.464;18.976;2023-03-22T01:57:14;99697.47;;;11.19;59.82
65666;BME280;52365;47.464;18.976;2023-03-22T01:57:51;99704.13;;;11.09;59.90
65666;BME280;52365;47.464;18.976;2023-03-22T01:58:28;99711.69;;;10.96;60.61
65666;BME280;52365;47.464;18.976;2023-03-22T01:59:05;99696.66;;;11.04;60.47
65666;BME280;52365;47.464;18.976;2023-03-22T01:59:43;99701.91;;;11.07;60.20
65666;BME280;52365;47.464;18.976;2023-03-22T02:00:20;99701.50;;;11.00;60.62
65666;BME280;52365;47.464;18.976;2023-03-22T02:00:57;99697.59;;;11.49;59.83
65666;BME280;52365;47.464;18.976;2023-03-22T02:01:33;99701.81;;;11.89;58.11
65666;BME280;52365;47.464;18.976;2023-03-22T02:02:11;99698.66;;;12.05;57.31
65666;BME280;52365;47.464;18.976;2023-03-22T02:02:51;99700.53;;;12.14;56.64
65666;BME280;52365;47.464;18.976;2023-03-22T02:03:35;99705.66;;;11.97;56.84
65666;BME280;52365;47.464;18.976;2023-03-22T02:04:18;99706.69;;;11.99;56.93
65666;BME280;52365;47.464;18.976;2023-03-22T02:04:55;99695.41;;;12.16;56.81
65666;BME280;52365;47.464;18.976;2023-03-22T02:05:34;99705.78;;;12.47;55.66
65666;BME280;52365;47.464;18.976;2023-03-22T02:06:11;99700.44;;;12.52;55.18
65666;BME280;52365;47.464;18.976;2023-03-22T02:06:50;99703.41;;;12.54;55.15
65666;BME280;52365;47.464;18.976;2023-03-22T02:07:29;99700.81;;;12.45;55.18
65666;BME280;52365;47.464;18.976;2023-03-22T02:08:06;99708.75;;;11.80;56.86
65666;BME280;52365;47.464;18.976;2023-03-22T02:08:44;99714.47;;;11.58;57.71
65666;BME280;52365;47.464;18.976;2023-03-22T02:09:20;99710.44;;;11.54;58.12
65666;BME280;52365;47.464;18.976;2023-03-22T02:09:59;99705.91;;;11.60;57.96
65666;BME280;52365;47.464;18.976;2023-03-22T02:10:36;99710.25;;;11.43;58.82
65666;BME280;52365;47.464;18.976;2023-03-22T02:11:16;99711.91;;;11.16;59.07
65666;BME280;52365;47.464;18.976;2023-03-22T02:11:59;99705.97;;;11.03;59.85
65666;BME280;52365;47.464;18.976;2023-03-22T02:12:53;99702.66;;;11.08;60.01
65666;BME280;52365;47.464;18.976;2023-03-22T02:14:40;99703.97;;;11.60;58.80
65666;BME280;52365;47.464;18.976;2023-03-22T02:15:31;99701.28;;;12.14;56.63
65666;BME280;52365;47.464;18.976;2023-03-22T02:17:02;99707.59;;;11.33;58.57
65666;BME280;52365;47.464;18.976;2023-03-22T02:17:50;99703.22;;;11.12;59.57
65666;BME280;52365;47.464;18.976;2023-03-22T02:30:09;99714.19;;;10.66;60.75
65666;BME280;52365;47.464;18.976;2023-03-22T02:31:19;99716.19;;;10.56;61.14
65666;BME280;52365;47.464;18.976;2023-03-22T02:32:06;99714.19;;;10.05;63.01
65666;BME280;52365;47.464;18.976;2023-03-22T02:33:15;99711.00;;;10.34;62.62
65666;BME280;52365;47.464;18.976;2023-03-22T02:38:05;99708.19;;;10.29;61.30
65666;BME280;52365;47.464;18.976;2023-03-22T02:39:59;99715.12;;;10.96;58.22
65666;BME280;52365;47.464;18.976;2023-03-22T02:40:49;99714.66;;;10.65;59.53
65666;BME280;52365;47.464;18.976;2023-03-22T02:43:44;99715.66;;;10.16;61.47
65666;BME280;52365;47.464;18.976;2023-03-22T03:27:14;99709.91;;;10.50;63.40
65666;BME280;52365;47.464;18.976;2023-03-22T03:27:57;99716.22;;;10.38;63.94
65666;BME280;52365;47.464;18.976;2023-03-22T03:28:50;99711.84;;;10.59;63.85
65666;BME280;52365;47.464;18.976;2023-03-22T03:30:10;99710.56;;;10.78;62.94
65666;BME280;52365;47.464;18.976;2023-03-22T03:31:09;99705.22;;;10.69;63.08
65666;BME280;52365;47.464;18.976;2023-03-22T03:32:01;99708.88;;;10.48;63.67
65666;BME280;52365;47.464;18.976;2023-03-22T03:32:45;99709.63;;;10.48;63.86
65666;BME280;52365;47.464;18.976;2023-03-22T03:33:24;99716.34;;;10.53;63.63
65666;BME280;52365;47.464;18.976;2023-03-22T03:34:24;99705.94;;;10.70;63.48
65666;BME280;52365;47.464;18.976;2023-03-22T03:35:38;99716.53;;;10.82;62.64
65666;BME280;52365;47.464;18.976;2023-03-22T03:36:18;99717.63;;;10.67;63.08
65666;BME280;52365;47.464;18.976;2023-03-22T03:37:02;99721.25;;;10.64;63.33
65666;BME280;52365;47.464;18.976;2023-03-22T03:37:44;99718.13;;;10.98;62.86
65666;BME280;52365;47.464;18.976;2023-03-22T03:38:25;99716.66;;;10.88;62.66
65666;BME280;52365;47.464;18.976;2023-03-22T03:39:05;99713.84;;;10.82;62.58
65666;BME280;52365;47.464;18.976;2023-03-22T03:39:50;99722.25;;;10.84;62.60
65666;BME280;52365;47.464;18.976;2023-03-22T03:40:31;99725.75;;;11.00;62.27
65666;BME280;52365;47.464;18.976;2023-03-22T03:41:12;99724.97;;;11.08;62.01
65666;BME280;52365;47.464;18.976;2023-03-22T03:41:50;99719.91;;;11.01;62.17
65666;BME280;52365;47.464;18.976;2023-03-22T03:42:28;99727.41;;;10.97;61.95
65666;BME280;52365;47.464;18.976;2023-03-22T03:43:06;99725.50;;;10.89;62.07
65666;BME280;52365;47.464;18.976;2023-03-22T03:43:44;99732.34;;;10.99;61.92
65666;BME280;52365;47.464;18.976;2023-03-22T03:44:22;99737.56;;;11.35;61.19
65666;BME280;52365;47.464;18.976;2023-03-22T03:44:59;99732.69;;;11.49;60.19
65666;BME280;52365;47.464;18.976;2023-03-22T03:45:36;99731.56;;;11.31;59.52
65666;BME280;52365;47.464;18.976;2023-03-22T03:46:13;99740.88;;;11.06;59.09
65666;BME280;52365;47.464;18.976;2023-03-22T03:46:51;99739.41;;;10.96;58.71
65666;BME280;52365;47.464;18.976;2023-03-22T03:47:28;99730.12;;;10.88;58.29
65666;BME280;52365;47.464;18.976;2023-03-22T03:48:07;99736.75;;;10.87;58.05
65666;BME280;52365;47.464;18.976;2023-03-22T03:48:47;99732.69;;;10.92;58.07
65666;BME280;52365;47.464;18.976;2023-03-22T03:49:24;99733.31;;;11.44;57.08
65666;BME280;52365;47.464;18.976;2023-03-22T03:50:03;99728.72;;;11.59;55.72
65666;BME280;52365;47.464;18.976;2023-03-22T03:50:40;99732.03;;;11.54;55.54
65666;BME280;52365;47.464;18.976;2023-03-22T03:51:17;99732.38;;;11.71;55.20
65666;BME280;52365;47.464;18.976;2023-03-22T03:51:54;99728.66;;;11.44;55.39
65666;BME280;52365;47.464;18.976;2023-03-22T03:52:31;99730.59;;;10.87;57.57
65666;BME280;52365;47.464;18.976;2023-03-22T03:53:07;99726.25;;;10.38;59.46
65666;BME280;52365;47.464;18.976;2023-03-22T03:53:43;99726.31;;;10.80;59.63
65666;BME280;52365;47.464;18.976;2023-03-22T03:54:19;99734.81;;;10.78;59.31
65666;BME280;52365;47.464;18.976;2023-03-22T03:54:55;99728.41;;;10.76;59.35
65666;BME280;52365;47.464;18.976;2023-03-22T03:55:32;99725.63;;;10.52;59.62
65666;BME280;52365;47.464;18.976;2023-03-22T03:56:08;99733.56;;;10.55;59.85
65666;BME280;52365;47.464;18.976;2023-03-22T03:56:45;99733.72;;;10.52;59.64
65666;BME280;52365;47.464;18.976;2023-03-22T03:57:25;99727.03;;;10.80;59.04
65666;BME280;52365;47.464;18.976;2023-03-22T03:58:01;99729.09;;;11.19;57.65
65666;BME280;52365;47.464;18.976;2023-03-22T03:58:38;99730.78;;;11.16;56.97
65666;BME280;52365;47.464;18.976;2023-03-22T03:59:15;99725.66;;;11.18;56.60
65666;BME280;52365;47.464;18.976;2023-03-22T03:59:51;99729.50;;;11.26;56.15
65666;BME280;52365;47.464;18.976;2023-03-22T04:00:27;99728.19;;;11.22;56.11
65666;BME280;52365;47.464;18.976;2023-03-22T04:01:04;99730.88;;;11.22;56.55
65666;BME280;52365;47.464;18.976;2023-03-22T04:01:44;99734.06;;;11.20;56.75
65666;BME280;52365;47.464;18.976;2023-03-22T04:02:24;99729.34;;;11.30;56.57
65666;BME280;52365;47.464;18.976;2023-03-22T04:03:01;99730.69;;;11.01;56.63
65666;BME280;52365;47.464;18.976;2023-03-22T04:03:38;99728.59;;;10.63;57.34
65666;BME280;52365;47.464;18.976;2023-03-22T04:04:16;99737.88;;;10.62;58.10
65666;BME280;52365;47.464;18.976;2023-03-22T04:04:52;99723.12;;;10.30;58.93
65666;BME280;52365;47.464;18.976;2023-03-22T04:05:28;99722.81;;;10.00;59.77
65666;BME280;52365;47.464;18.976;2023-03-22T04:06:04;99722.22;;;10.24;60.28
65666;BME280;52365;47.464;18.976;2023-03-22T04:06:41;99725.53;;;10.79;58.68
65666;BME280;52365;47.464;18.976;2023-03-22T04:07:17;99723.31;;;11.11;57.15
65666;BME280;52365;47.464;18.976;2023-03-22T04:07:53;99725.38;;;11.16;56.39
65666;BME280;52365;47.464;18.976;2023-03-22T04:08:29;99720.03;;;11.31;55.97
65666;BME280;52365;47.464;18.976;2023-03-22T04:09:05;99720.22;;;11.27;55.88
65666;BME280;52365;47.464;18.976;2023-03-22T04:09:41;99722.09;;;11.12;55.87
65666;BME280;52365;47.464;18.976;2023-03-22T04:10:17;99719.19;;;10.92;56.61
65666;BME280;52365;47.464;18.976;2023-03-22T04:10:54;99727.59;;;10.94;56.78
65666;BME280;52365;47.464;18.976;2023-03-22T04:11:30;99729.19;;;10.67;57.20
65666;BME280;52365;47.464;18.976;2023-03-22T04:12:06;99729.84;;;10.34;58.05
65666;BME280;52365;47.464;18.976;2023-03-22T04:12:44;99723.59;;;10.10;59.47
65666;BME280;52365;47.464;18.976;2023-03-22T04:13:20;99727.78;;;10.29;59.34
65666;BME280;52365;47.464;18.976;2023-03-22T04:13:56;99723.28;;;10.26;59.10
65666;BME280;52365;47.464;18.976;2023-03-22T04:14:32;99731.81;;;10.06;59.50
65666;BME280;52365;47.464;18.976;2023-03-22T04:15:09;99736.28;;;9.82;60.31
65666;BME280;52365;47.464;18.976;2023-03-22T04:15:51;99738.69;;;9.62;61.17
65666;BME280;52365;47.464;18.976;2023-03-22T04:16:27;99736.13;;;9.58;61.82
65666;BME280;52365;47.464;18.976;2023-03-22T04:17:04;99740.31;;;9.68;61.76
65666;BME280;52365;47.464;18.976;2023-03-22T04:17:40;99742.87;;;9.53;61.99
65666;BME280;52365;47.464;18.976;2023-03-22T04:18:16;99744.94;;;9.40;62.51
65666;BME280;52365;47.464;18.976;2023-03-22T04:18:52;99751.34;;;9.52;62.71
65666;BME280;52365;47.464;18.976;2023-03-22T04:19:28;99740.94;;;9.91;61.85
65666;BME280;52365;47.464;18.976;2023-03-22T04:20:06;99737.66;;;10.14;60.80
65666;BME280;52365;47.464;18.976;2023-03-22T04:20:45;99736.88;;;10.04;60.37
65666;BME280;52365;47.464;18.976;2023-03-22T04:21:21;99739.12;;;10.15;60.39
65666;BME280;52365;47.464;18.976;2023-03-22T04:21:57;99740.91;;;10.09;60.36
65666;BME280;52365;47.464;18.976;2023-03-22T04:22:36;99735.25;;;10.07;60.45
65666;BME280;52365;47.464;18.976;2023-03-22T04:23:13;99738.41;;;10.15;60.62
65666;BME280;52365;47.464;18.976;2023-03-22T04:23:49;99729.56;;;10.42;59.94
65666;BME280;52365;47.464;18.976;2023-03-22T04:24:26;99723.78;;;10.67;59.11
65666;BME280;52365;47.464;18.976;2023-03-22T04:25:04;99719.63;;;10.99;57.99
65666;BME280;52365;47.464;18.976;2023-03-22T04:25:40;99728.72;;;11.11;57.26
65666;BME280;52365;47.464;18.976;2023-03-22T04:26:18;99719.53;;;10.84;57.32
65666;BME280;52365;47.464;18.976;2023-03-22T04:26:54;99726.25;;;10.38;58.60